createdAt,value
2022-12-09T00:01:43.472Z,24.35
2022-12-09T00:07:50.655Z,20.60
2022-12-09T00:10:17.515Z,19.58
2022-12-09T00:20:08.410Z,20.92
2022-12-09T00:26:40.893Z,24.23
2022-12-09T00:29:07.598Z,26.23
2022-12-09T00:31:36.799Z,24.55
2022-12-09T00:34:08.945Z,23.17
2022-12-09T00:41:07.745Z,23.48
2022-12-09T00:43:34.837Z,22.08
2022-12-09T00:46:02.084Z,23.50
2022-12-09T00:54:53.516Z,28.00
2022-12-09T00:57:20.815Z,29.63
2022-12-09T01:03:34.365Z,22.55
2022-12-09T01:06:01.558Z,23.40
2022-12-09T01:08:28.262Z,22.98
2022-12-09T01:14:36.051Z,22.08
2022-12-09T01:17:02.701Z,23.27
2022-12-09T01:23:29.025Z,21.88
2022-12-09T01:29:53.376Z,21.58
2022-12-09T01:32:20.441Z,23.88
2022-12-09T01:34:47.746Z,21.23
2022-12-09T01:40:55.226Z,19.95
2022-12-09T01:43:22.279Z,21.75
2022-12-09T01:45:49.854Z,20.23
2022-12-09T01:59:22.399Z,20.42
2022-12-09T02:28:12.460Z,21.08
2022-12-09T02:39:26.626Z,20.50
2022-12-09T02:57:19.949Z,21.02
2022-12-09T03:15:17.642Z,22.67
2022-12-09T03:47:12.097Z,27.42
2022-12-09T04:16:19.464Z,27.58
2022-12-09T04:26:21.219Z,27.40
2022-12-09T04:28:48.751Z,28.65
2022-12-09T04:31:17.326Z,28.40
2022-12-09T04:41:16.245Z,27.77
2022-12-09T04:52:38.651Z,33.10
2022-12-09T05:03:42.955Z,27.20
2022-12-09T05:17:07.514Z,27.52
2022-12-09T05:20:09.663Z,27.27
2022-12-09T05:22:36.936Z,28.23
2022-12-09T05:52:02.668Z,26.58
2022-12-09T05:54:29.550Z,27.75
2022-12-09T05:56:58.163Z,29.33
2022-12-09T05:59:25.407Z,28.60
2022-12-09T06:01:52.333Z,29.08
2022-12-09T06:04:19.589Z,29.48
2022-12-09T06:06:47.975Z,31.83
2022-12-09T06:09:15.390Z,30.35
2022-12-09T06:11:42.463Z,29.92
2022-12-09T06:14:11.591Z,29.27
2022-12-09T06:16:40.948Z,22.90
2022-12-09T06:19:11.214Z,28.48
2022-12-09T06:21:41.658Z,31.00
2022-12-09T06:24:09.299Z,30.38
2022-12-09T06:26:36.273Z,31.20
2022-12-09T06:29:03.167Z,30.30
2022-12-09T06:31:33.671Z,30.98
2022-12-09T06:34:01.198Z,31.00
2022-12-09T06:36:31.119Z,30.65
2022-12-09T06:41:36.489Z,29.95
2022-12-09T06:44:15.842Z,32.33
2022-12-09T06:46:48.669Z,32.70
2022-12-09T06:49:15.714Z,35.47
2022-12-09T06:51:49.138Z,34.13
2022-12-09T06:54:16.572Z,33.22
2022-12-09T06:56:43.631Z,33.17
2022-12-09T06:59:11.274Z,32.00
2022-12-09T07:01:39.030Z,31.65
2022-12-09T07:04:07.736Z,31.92
2022-12-09T07:06:40.159Z,30.00
2022-12-09T07:09:13.026Z,29.60
2022-12-09T07:11:42.546Z,31.65
2022-12-09T07:14:10.747Z,31.27
2022-12-09T07:16:38.218Z,30.80
2022-12-09T07:19:06.109Z,29.02
2022-12-09T07:21:34.679Z,29.60
2022-12-09T07:24:03.100Z,31.92
2022-12-09T07:26:33.711Z,28.33
2022-12-09T07:29:05.132Z,31.40
2022-12-09T07:31:32.678Z,30.50
2022-12-09T07:34:00.169Z,30.17
2022-12-09T07:39:40.009Z,30.08
2022-12-09T07:42:06.671Z,24.42
2022-12-09T07:44:33.292Z,25.13
2022-12-09T07:47:00.318Z,23.98
2022-12-09T07:49:27.414Z,23.25
2022-12-09T07:52:46.993Z,24.20
2022-12-09T07:56:11.172Z,23.30
2022-12-09T07:58:44.613Z,22.08
2022-12-09T08:01:16.211Z,21.10
2022-12-09T08:03:47.565Z,21.15
2022-12-09T08:06:17.319Z,19.15
2022-12-09T08:08:45.212Z,20.67
2022-12-09T08:11:23.680Z,22.10
2022-12-09T08:13:57.651Z,22.17
2022-12-09T08:16:35.266Z,21.75
2022-12-09T08:21:54.555Z,32.70
2022-12-09T08:24:26.087Z,24.73
2022-12-09T08:26:55.860Z,26.45
2022-12-09T08:29:27.061Z,25.67
2022-12-09T08:32:16.298Z,24.45
2022-12-09T08:35:24.479Z,25.50
2022-12-09T08:37:52.213Z,33.22
2022-12-09T08:40:25.389Z,25.45
2022-12-09T08:42:52.497Z,26.88
2022-12-09T08:45:54.651Z,25.60
2022-12-09T08:48:23.774Z,25.50
2022-12-09T08:51:05.127Z,22.03
2022-12-09T08:56:48.406Z,31.75
2022-12-09T08:59:28.630Z,27.05
2022-12-09T09:04:34.878Z,27.10
2022-12-09T09:07:02.227Z,25.85
2022-12-09T09:09:29.171Z,20.95
2022-12-09T09:11:56.144Z,23.80
2022-12-09T09:14:22.900Z,23.95
2022-12-09T09:16:50.005Z,21.73
2022-12-09T09:19:20.611Z,22.98
2022-12-09T09:21:47.944Z,24.98
2022-12-09T09:24:18.179Z,23.05
2022-12-09T09:27:00.269Z,20.80
2022-12-09T09:32:10.730Z,23.15
2022-12-09T09:34:37.754Z,22.02
2022-12-09T09:37:04.893Z,22.30
2022-12-09T09:39:31.553Z,21.23
2022-12-09T09:42:08.050Z,23.85
2022-12-09T09:44:50.779Z,21.85
2022-12-09T09:47:40.061Z,19.98
2022-12-09T09:50:49.545Z,17.90
2022-12-09T09:53:31.428Z,17.35
2022-12-09T09:56:26.888Z,18.40
2022-12-09T09:59:00.429Z,18.20
2022-12-09T10:01:33.552Z,15.82
2022-12-09T10:04:23.689Z,19.27
2022-12-09T10:09:41.496Z,17.67
2022-12-09T10:12:44.006Z,16.98
2022-12-09T10:15:25.875Z,15.15
2022-12-09T10:17:55.461Z,15.35
2022-12-09T10:20:28.613Z,15.43
2022-12-09T10:23:12.009Z,15.90
2022-12-09T10:25:45.536Z,14.45
2022-12-09T10:28:19.572Z,15.85
2022-12-09T10:30:46.487Z,15.13
2022-12-09T10:33:15.307Z,14.98
2022-12-09T10:35:42.690Z,14.45
2022-12-09T10:38:16.205Z,14.93
2022-12-09T10:40:50.454Z,15.82
2022-12-09T10:43:35.695Z,14.63
2022-12-09T10:46:23.169Z,14.80
2022-12-09T10:48:50.545Z,15.45
2022-12-09T10:51:18.645Z,16.35
2022-12-09T10:53:51.703Z,17.60
2022-12-09T10:56:23.460Z,18.20
2022-12-09T10:58:50.395Z,16.88
2022-12-09T11:01:17.471Z,17.92
2022-12-09T11:03:54.759Z,20.48
2022-12-09T11:06:33.462Z,17.20
2022-12-09T11:09:03.092Z,18.95
2022-12-09T11:11:48.045Z,17.03
2022-12-09T11:14:32.093Z,15.27
2022-12-09T11:17:11.354Z,16.65
2022-12-09T11:19:39.845Z,14.18
2022-12-09T11:22:40.828Z,19.70
2022-12-09T11:25:43.959Z,15.50
2022-12-09T11:28:15.902Z,22.10
2022-12-09T11:50:42.523Z,17.40
2022-12-09T11:58:08.315Z,32.10
2022-12-09T12:05:06.535Z,21.50
2022-12-09T12:30:49.974Z,20.55
2022-12-09T12:34:00.444Z,18.55
2022-12-09T12:47:57.765Z,16.25
2022-12-09T12:58:44.352Z,17.08
2022-12-09T13:28:37.261Z,20.08
2022-12-09T13:31:09.146Z,27.10
2022-12-09T14:57:52.387Z,18.38
2022-12-09T15:00:41.133Z,22.77
2022-12-09T15:03:45.276Z,23.80
2022-12-09T15:06:46.016Z,23.67
2022-12-09T15:12:37.354Z,22.40
2022-12-09T15:21:36.131Z,23.60
2022-12-09T15:24:03.285Z,19.20
2022-12-09T15:26:34.887Z,21.48
2022-12-09T15:29:05.086Z,20.58
2022-12-09T15:35:24.756Z,20.15
2022-12-09T15:37:54.671Z,24.45
2022-12-09T15:40:22.672Z,19.95
2022-12-09T15:42:54.264Z,25.05
2022-12-09T15:45:24.517Z,24.98
2022-12-09T15:51:33.537Z,26.60
2022-12-09T16:06:16.240Z,22.88
2022-12-09T16:09:02.058Z,26.67
2022-12-09T16:12:25.040Z,29.05
2022-12-09T16:14:54.724Z,25.13
2022-12-09T16:17:25.081Z,23.40
2022-12-09T16:19:51.841Z,27.13
2022-12-09T16:22:28.878Z,27.27
2022-12-09T16:25:20.138Z,23.33
2022-12-09T16:30:59.683Z,25.48
2022-12-09T16:33:55.920Z,23.95
2022-12-09T16:36:31.175Z,27.83
2022-12-09T16:39:23.703Z,30.10
2022-12-09T16:41:52.999Z,28.42
2022-12-09T16:44:27.248Z,21.60
2022-12-09T16:47:14.284Z,25.70
2022-12-09T16:49:45.369Z,27.10
2022-12-09T16:52:14.167Z,28.90
2022-12-09T16:54:43.639Z,24.83
2022-12-09T16:57:15.807Z,23.52
2022-12-09T16:59:44.108Z,22.95
2022-12-09T17:02:33.457Z,24.48
2022-12-09T17:05:01.152Z,19.20
2022-12-09T17:07:27.718Z,32.00
2022-12-09T17:09:54.298Z,28.05
2022-12-09T17:53:10.902Z,18.65
2022-12-09T17:59:16.108Z,22.58
2022-12-09T18:01:44.669Z,24.30
2022-12-09T18:04:12.581Z,24.38
2022-12-09T18:06:44.298Z,25.80
2022-12-09T18:09:17.050Z,27.08
2022-12-09T18:11:45.182Z,26.67
2022-12-09T18:14:11.953Z,28.05
2022-12-09T18:16:38.614Z,22.50
2022-12-09T18:19:12.916Z,25.63
2022-12-09T18:21:39.649Z,25.55
2022-12-09T18:24:06.502Z,25.52
2022-12-09T18:26:38.132Z,21.92
2022-12-09T18:29:08.212Z,24.42
2022-12-09T18:31:35.152Z,20.58
2022-12-09T18:34:01.739Z,24.27
2022-12-09T18:36:28.828Z,26.70
2022-12-09T18:38:57.931Z,26.20
2022-12-09T18:41:26.808Z,24.60
2022-12-09T18:43:54.164Z,29.50
2022-12-09T18:46:25.594Z,31.08
2022-12-09T18:49:01.370Z,28.92
2022-12-09T18:51:28.708Z,27.63
2022-12-09T18:53:58.400Z,31.52
2022-12-09T18:56:25.840Z,26.33
2022-12-09T18:59:09.031Z,31.05
2022-12-09T19:01:41.421Z,32.97
2022-12-09T19:04:15.596Z,28.40
2022-12-09T19:06:44.602Z,23.30
2022-12-09T19:09:16.802Z,26.75
2022-12-09T19:11:44.899Z,22.88
2022-12-09T19:14:14.136Z,26.17
2022-12-09T19:16:45.569Z,20.70
2022-12-09T19:19:14.794Z,25.30
2022-12-09T19:21:42.519Z,19.93
2022-12-09T19:24:17.357Z,23.42
2022-12-09T19:26:44.842Z,23.23
2022-12-09T19:29:12.863Z,23.58
2022-12-09T19:31:47.660Z,18.02
2022-12-09T19:34:26.225Z,20.80
2022-12-09T19:36:56.604Z,18.13
2022-12-09T19:39:25.531Z,24.13
2022-12-09T19:41:52.909Z,23.73
2022-12-09T19:44:44.297Z,23.08
2022-12-09T19:47:07.199Z,20.60
2022-12-09T19:49:34.334Z,26.13
2022-12-09T19:52:00.877Z,27.33
2022-12-09T19:54:29.684Z,25.05
2022-12-09T19:56:56.422Z,23.60
2022-12-09T19:59:23.029Z,23.52
2022-12-09T20:01:49.695Z,21.02
2022-12-09T20:04:47.743Z,23.23
2022-12-09T20:07:08.284Z,19.75
2022-12-09T20:09:36.237Z,21.73
2022-12-09T20:12:03.189Z,18.90
2022-12-09T20:14:29.757Z,21.83
2022-12-09T20:16:56.355Z,19.33
2022-12-09T20:19:23.750Z,23.00
2022-12-09T20:21:50.256Z,17.27
2022-12-09T20:24:16.760Z,22.65
2022-12-09T20:26:44.294Z,19.67
2022-12-09T20:29:11.271Z,22.77
2022-12-09T20:31:38.800Z,19.42
2022-12-09T20:34:12.401Z,23.35
2022-12-09T20:36:41.690Z,22.85
2022-12-09T20:39:13.128Z,21.30
2022-12-09T20:41:40.117Z,25.10
2022-12-09T20:44:06.846Z,24.52
2022-12-09T20:46:33.764Z,24.38
2022-12-09T20:49:00.836Z,30.20
2022-12-09T20:51:35.965Z,25.48
2022-12-09T20:54:03.209Z,26.77
2022-12-09T20:56:30.070Z,25.55
2022-12-09T20:58:57.756Z,18.88
2022-12-09T21:01:30.137Z,23.05
2022-12-09T21:03:58.322Z,24.40
2022-12-09T21:06:29.349Z,24.20
2022-12-09T21:08:57.451Z,24.02
2022-12-09T21:11:25.359Z,25.42
2022-12-09T21:13:56.936Z,19.92
2022-12-09T21:16:26.492Z,23.83
2022-12-09T21:18:56.723Z,20.52
2022-12-09T21:21:25.133Z,23.00
2022-12-09T21:23:54.334Z,20.88
2022-12-09T21:26:23.274Z,19.60
2022-12-09T21:28:51.047Z,20.00
2022-12-09T21:31:20.502Z,26.92
2022-12-09T21:33:48.466Z,19.75
2022-12-09T21:36:18.166Z,22.45
2022-12-09T21:38:44.716Z,20.55
2022-12-09T21:41:15.296Z,26.88
2022-12-09T21:43:42.727Z,21.40
2022-12-09T21:46:12.878Z,26.90
2022-12-09T21:48:40.414Z,22.50
2022-12-09T21:51:07.562Z,21.38
2022-12-09T21:53:34.890Z,23.65
2022-12-09T21:56:18.399Z,20.55
2022-12-09T21:58:46.608Z,24.15
2022-12-09T22:01:20.266Z,21.75
2022-12-09T22:03:47.911Z,24.67
2022-12-09T22:06:15.701Z,25.77
2022-12-09T22:08:42.971Z,23.58
2022-12-09T22:11:21.666Z,25.70
2022-12-09T22:13:48.486Z,29.58
2022-12-09T22:16:21.879Z,26.77
2022-12-09T22:18:49.044Z,23.52
2022-12-09T22:21:27.964Z,24.98
2022-12-09T22:23:56.606Z,21.40
2022-12-09T22:26:23.867Z,24.25
2022-12-09T22:28:50.940Z,25.33
2022-12-09T22:31:21.749Z,24.30
2022-12-09T22:33:49.580Z,21.10
2022-12-09T22:36:16.606Z,24.42
2022-12-09T22:38:43.848Z,24.00
2022-12-09T22:41:13.821Z,25.52
2022-12-09T22:43:41.217Z,20.70
2022-12-09T22:46:25.009Z,23.42
2022-12-09T22:48:51.815Z,23.65
2022-12-09T22:51:23.359Z,19.02
2022-12-09T22:53:51.445Z,24.00
2022-12-09T22:56:18.900Z,20.20
2022-12-09T22:58:46.327Z,25.83
2022-12-09T23:01:15.307Z,24.77
2022-12-09T23:03:42.228Z,25.20
2022-12-09T23:06:09.637Z,21.08
2022-12-09T23:08:38.478Z,26.08
2022-12-09T23:11:08.419Z,25.20
2022-12-09T23:13:40.622Z,20.58
2022-12-09T23:16:12.441Z,26.08
2022-12-09T23:18:40.098Z,26.55
2022-12-09T23:21:22.426Z,27.45
2022-12-09T23:23:52.761Z,26.10
2022-12-09T23:26:21.454Z,22.52
2022-12-09T23:28:50.816Z,26.77
2022-12-09T23:31:21.004Z,22.95
2022-12-09T23:33:49.425Z,29.85
2022-12-09T23:36:19.877Z,29.20
2022-12-09T23:38:49.975Z,25.42
2022-12-09T23:43:45.769Z,23.90
2022-12-09T23:46:16.267Z,21.50
2022-12-09T23:48:48.096Z,26.88
2022-12-09T23:51:26.202Z,29.92
2022-12-09T23:53:56.083Z,24.50
2022-12-09T23:56:24.340Z,20.52
2022-12-09T23:58:59.883Z,24.27
